createdAt,value
2017-08-01T00:00:04.251Z,85.31
2017-08-01T00:01:04.231Z,85.22
2017-08-01T00:02:04.209Z,85.22
2017-08-01T00:03:04.209Z,85.31
2017-08-01T00:04:04.220Z,85.31
2017-08-01T00:05:04.225Z,85.12
2017-08-01T00:06:04.225Z,85.5
2017-08-01T00:07:04.227Z,85.99
2017-08-01T00:08:04.239Z,85.8
2017-08-01T00:09:04.260Z,85.8
2017-08-01T00:10:04.253Z,85.89
2017-08-01T00:11:04.246Z,85.7
2017-08-01T00:12:04.256Z,85.7
2017-08-01T00:13:04.255Z,85.94
2017-08-01T00:14:04.257Z,86.38
2017-08-01T00:15:09.701Z,86.08
2017-08-01T00:16:03.978Z,86.28
2017-08-01T00:17:04.280Z,86.38
2017-08-01T00:18:04.271Z,86.08
2017-08-01T00:19:03.978Z,86.18
2017-08-01T00:20:04.281Z,86.08
2017-08-01T00:21:04.284Z,86.33
2017-08-01T00:22:04.003Z,85.99
2017-08-01T00:23:04.292Z,86.08
2017-08-01T00:24:04.292Z,86.82
2017-08-01T00:25:04.300Z,86.28
2017-08-01T00:26:04.295Z,86.52
2017-08-01T00:27:04.003Z,86.43
2017-08-01T00:28:04.308Z,86.72
2017-08-01T00:29:04.318Z,86.82
2017-08-01T00:30:04.317Z,87.59
2017-08-01T00:31:04.320Z,87.2
2017-08-01T00:32:04.322Z,87.88
2017-08-01T00:33:04.327Z,88.07
2017-08-01T00:34:04.334Z,88.6
2017-08-01T00:35:04.334Z,88.26
2017-08-01T00:36:04.339Z,88.55
2017-08-01T00:37:04.340Z,88.79
2017-08-01T00:38:04.345Z,89.28
2017-08-01T00:39:04.348Z,89.61
2017-08-01T00:40:04.353Z,89.28
2017-08-01T00:41:04.060Z,89.76
2017-08-01T00:42:04.369Z,90.05
2017-08-01T00:43:04.373Z,89.37
2017-08-01T00:44:04.371Z,89.28
2017-08-01T00:45:04.377Z,89.28
2017-08-01T00:46:04.375Z,89.47
2017-08-01T00:47:04.379Z,89.71
2017-08-01T00:48:04.385Z,89.71
2017-08-01T00:49:04.385Z,89.42
2017-08-01T00:50:04.388Z,89.71
2017-08-01T00:51:04.091Z,89.71
2017-08-01T00:52:04.396Z,89.13
2017-08-01T00:53:04.403Z,88.65
2017-08-01T00:54:04.411Z,88.55
2017-08-01T00:55:04.409Z,88.65
2017-08-01T00:56:04.411Z,88.36
2017-08-01T00:57:04.114Z,88.26
2017-08-01T00:58:04.417Z,88.36
2017-08-01T00:59:04.437Z,88.45
2017-08-01T01:00:04.424Z,88.36
2017-08-01T01:01:04.440Z,88.36
2017-08-01T01:02:04.438Z,88.45
2017-08-01T01:03:04.437Z,88.93
2017-08-01T01:04:04.445Z,88.65
2017-08-01T01:05:04.445Z,88.84
2017-08-01T01:06:04.466Z,88.75
2017-08-01T01:07:04.155Z,88.93
2017-08-01T01:08:04.469Z,88.55
2017-08-01T01:09:04.471Z,88.45
2017-08-01T01:10:04.470Z,88.26
2017-08-01T01:11:04.473Z,88.36
2017-08-01T01:12:04.472Z,88.26
2017-08-01T01:13:04.486Z,88.36
2017-08-01T01:14:04.486Z,88.36
2017-08-01T01:15:04.480Z,88.36
2017-08-01T01:16:06.535Z,88.36
2017-08-01T01:17:04.492Z,88.26
2017-08-01T01:18:04.188Z,87.97
2017-08-01T01:19:04.494Z,88.17
2017-08-01T01:20:04.505Z,88.65
2017-08-01T01:21:04.533Z,88.65
2017-08-01T01:22:04.513Z,88.7
2017-08-01T01:23:04.510Z,89.18
2017-08-01T01:24:04.514Z,89.95
2017-08-01T01:25:04.533Z,90.24
2017-08-01T01:26:04.225Z,89.76
2017-08-01T01:27:04.534Z,89.86
2017-08-01T01:28:04.533Z,90
2017-08-01T01:29:04.537Z,89.28
2017-08-01T01:30:04.538Z,89.81
2017-08-01T01:31:04.540Z,89.81
2017-08-01T01:32:04.550Z,89.81
2017-08-01T01:33:04.552Z,89.61
2017-08-01T01:34:04.559Z,89.13
2017-08-01T01:35:04.566Z,89.13
2017-08-01T01:36:04.563Z,89.32
2017-08-01T01:37:04.567Z,88.65
2017-08-01T01:38:04.570Z,88.84
2017-08-01T01:39:04.579Z,88.75
2017-08-01T01:40:04.572Z,89.23
2017-08-01T01:41:04.573Z,89.23
2017-08-01T01:42:04.578Z,88.75
2017-08-01T01:43:04.586Z,89.51
2017-08-01T01:44:04.584Z,89.51
2017-08-01T01:45:04.589Z,88.65
2017-08-01T01:46:04.591Z,89.03
2017-08-01T01:47:04.597Z,88.65
2017-08-01T01:48:04.599Z,88.65
2017-08-01T01:49:04.601Z,88.75
2017-08-01T01:50:04.300Z,88.45
2017-08-01T01:51:04.610Z,88.75
2017-08-01T01:52:04.621Z,88.75
2017-08-01T01:53:04.647Z,88.75
2017-08-01T01:54:04.319Z,89.03
2017-08-01T01:55:04.629Z,88.84
2017-08-01T01:56:04.324Z,88.65
2017-08-01T01:57:04.632Z,88.45
2017-08-01T01:58:04.633Z,88.84
2017-08-01T01:59:04.643Z,88.45
2017-08-01T02:00:04.351Z,88.07
2017-08-01T02:01:04.643Z,87.97
2017-08-01T02:02:05.648Z,87.78
2017-08-01T02:03:04.651Z,87.88
2017-08-01T02:04:04.664Z,88.07
2017-08-01T02:05:04.663Z,87.78
2017-08-01T02:06:04.667Z,87.97
2017-08-01T02:07:04.668Z,87.78
2017-08-01T02:08:04.372Z,87.78
2017-08-01T02:09:04.682Z,87.78
2017-08-01T02:10:04.691Z,88.07
2017-08-01T02:11:04.388Z,88.17
2017-08-01T02:12:04.693Z,88.36
2017-08-01T02:13:04.885Z,88.55
2017-08-01T02:14:04.405Z,89.23
2017-08-01T02:15:04.395Z,88.93
2017-08-01T02:16:04.697Z,89.37
2017-08-01T02:17:04.409Z,89.23
2017-08-01T02:18:04.715Z,89.09
2017-08-01T02:19:04.712Z,88.84
2017-08-01T02:20:04.718Z,88.84
2017-08-01T02:21:04.731Z,88.17
2017-08-01T02:22:04.732Z,88.93
2017-08-01T02:23:04.731Z,88.36
2017-08-01T02:24:04.425Z,88.26
2017-08-01T02:25:04.733Z,88.07
2017-08-01T02:26:04.735Z,87.88
2017-08-01T02:27:04.740Z,87.97
2017-08-01T02:28:04.737Z,87.59
2017-08-01T02:29:04.755Z,87.88
2017-08-01T02:30:04.768Z,87.4
2017-08-01T02:31:04.757Z,87.4
2017-08-01T02:32:04.755Z,88.55
2017-08-01T02:33:04.456Z,88.5
2017-08-01T02:34:04.470Z,88.4
2017-08-01T02:35:04.765Z,88.89
2017-08-01T02:36:04.776Z,88.69
2017-08-01T02:37:04.477Z,89.22
2017-08-01T02:38:04.787Z,89.51
2017-08-01T02:39:04.788Z,89.41
2017-08-01T02:40:04.792Z,90.86
2017-08-01T02:41:04.799Z,91.15
2017-08-01T02:42:04.789Z,91.25
2017-08-01T02:43:04.505Z,91.83
2017-08-01T02:44:04.805Z,92.36
2017-08-01T02:45:04.803Z,93.23
2017-08-01T02:46:04.804Z,94.48
2017-08-01T02:47:04.810Z,94.58
2017-08-01T02:48:05.962Z,95.31
2017-08-01T02:49:04.814Z,95.88
2017-08-01T02:50:04.818Z,95.69
2017-08-01T02:51:04.828Z,96.56
2017-08-01T02:52:04.823Z,96.84
2017-08-01T02:53:04.878Z,97.52
2017-08-01T02:54:04.837Z,98.2
2017-08-01T02:55:04.835Z,98.29
2017-08-01T02:56:04.838Z,99.07
2017-08-01T02:57:04.846Z,98.97
2017-08-01T02:58:04.548Z,98.78
2017-08-01T02:59:04.550Z,99.45
2017-08-01T03:00:04.549Z,99.93
2017-08-01T03:01:04.860Z,99.84
2017-08-01T03:02:04.571Z,99.6
2017-08-01T03:03:04.916Z,99.99
2017-08-01T03:04:04.866Z,99.99
2017-08-01T03:05:04.869Z,99.99
2017-08-01T03:06:04.877Z,99.99
2017-08-01T03:07:04.875Z,99.99
2017-08-01T03:08:04.876Z,99.99
2017-08-01T03:09:04.884Z,99.99
2017-08-01T03:10:04.888Z,99.99
2017-08-01T03:11:04.889Z,99.99
2017-08-01T03:12:04.895Z,99.99
2017-08-01T03:13:04.909Z,99.99
2017-08-01T03:14:04.602Z,99.99
2017-08-01T03:15:04.907Z,99.99
2017-08-01T03:16:04.906Z,99.99
2017-08-01T03:17:04.912Z,99.99
2017-08-01T03:18:05.919Z,99.99
2017-08-01T03:19:04.915Z,99.99
2017-08-01T03:20:04.925Z,99.99
2017-08-01T03:21:04.971Z,99.99
2017-08-01T03:22:04.925Z,99.99
2017-08-01T03:23:04.932Z,99.99
2017-08-01T03:24:04.932Z,99.99
2017-08-01T03:25:04.936Z,99.99
2017-08-01T03:26:04.938Z,99.99
2017-08-01T03:27:04.948Z,99.99
2017-08-01T03:28:04.951Z,99.99
2017-08-01T03:29:04.951Z,99.99
2017-08-01T03:30:04.653Z,99.99
2017-08-01T03:31:04.960Z,99.99
2017-08-01T03:32:04.960Z,99.99
2017-08-01T03:33:04.961Z,99.99
2017-08-01T03:34:04.968Z,99.99
2017-08-01T03:35:04.972Z,99.99
2017-08-01T03:36:04.972Z,99.99
2017-08-01T03:37:04.975Z,99.99
2017-08-01T03:38:04.977Z,99.99
2017-08-01T03:39:04.983Z,99.99
2017-08-01T03:40:04.683Z,99.99
2017-08-01T03:41:04.988Z,99.99
2017-08-01T03:42:04.998Z,99.99
2017-08-01T03:43:04.996Z,99.99
2017-08-01T03:44:04.998Z,99.99
2017-08-01T03:45:05.006Z,99.99
2017-08-01T03:46:05.015Z,99.99
2017-08-01T03:47:05.019Z,99.99
2017-08-01T03:48:05.010Z,99.99
2017-08-01T03:49:05.021Z,99.99
2017-08-01T03:50:05.025Z,99.99
2017-08-01T03:51:05.041Z,99.99
2017-08-01T03:52:05.039Z,99.99
2017-08-01T03:53:05.041Z,99.99
2017-08-01T03:54:05.039Z,99.99
2017-08-01T03:55:05.051Z,99.99
2017-08-01T03:56:05.047Z,99.99
2017-08-01T03:57:05.046Z,99.99
2017-08-01T03:58:05.050Z,99.99
2017-08-01T03:59:04.749Z,99.99
2017-08-01T04:00:05.053Z,99.99
2017-08-01T04:01:05.058Z,99.99
2017-08-01T04:02:05.060Z,99.99
2017-08-01T04:03:05.072Z,99.99
2017-08-01T04:04:05.067Z,99.99
2017-08-01T04:05:05.073Z,99.99
2017-08-01T04:06:05.073Z,99.99
2017-08-01T04:07:05.078Z,99.99
2017-08-01T04:08:05.082Z,99.99
2017-08-01T04:09:05.089Z,99.99
2017-08-01T04:10:05.087Z,99.99
2017-08-01T04:11:05.092Z,99.99
2017-08-01T04:12:05.107Z,99.99
2017-08-01T04:13:05.108Z,99.99
2017-08-01T04:14:05.109Z,99.99
2017-08-01T04:15:05.111Z,99.99
2017-08-01T04:16:05.109Z,99.99
2017-08-01T04:17:05.112Z,99.99
2017-08-01T04:18:05.114Z,99.88
2017-08-01T04:19:05.119Z,99.69
2017-08-01T04:20:04.816Z,99.3
2017-08-01T04:21:05.123Z,99.02
2017-08-01T04:22:05.126Z,99.21
2017-08-01T04:23:05.134Z,99.11
2017-08-01T04:24:04.834Z,99.88
2017-08-01T04:25:05.148Z,99.88
2017-08-01T04:26:05.143Z,99.5
2017-08-01T04:27:05.145Z,99.79
2017-08-01T04:28:05.101Z,99.79
2017-08-01T04:29:05.152Z,99.6
2017-08-01T04:30:05.153Z,99.99
2017-08-01T04:31:05.159Z,99.88
2017-08-01T04:32:05.160Z,99.11
2017-08-01T04:33:05.164Z,99.02
2017-08-01T04:34:05.167Z,99.11
2017-08-01T04:35:05.174Z,99.11
2017-08-01T04:36:05.180Z,98.92
2017-08-01T04:37:05.178Z,99.11
2017-08-01T04:38:04.883Z,99.21
2017-08-01T04:39:05.195Z,98.92
2017-08-01T04:40:05.187Z,99.3
2017-08-01T04:41:05.192Z,99.02
2017-08-01T04:42:05.201Z,99.11
2017-08-01T04:43:05.204Z,98.82
2017-08-01T04:44:05.200Z,98.34
2017-08-01T04:45:05.205Z,97.77
2017-08-01T04:46:04.917Z,96.84
2017-08-01T04:47:05.212Z,96.36
2017-08-01T04:48:04.916Z,96.36
2017-08-01T04:49:05.219Z,95.88
2017-08-01T04:50:04.948Z,95.98
2017-08-01T04:51:05.226Z,94.92
2017-08-01T04:52:05.232Z,94.77
2017-08-01T04:53:05.235Z,94.38
2017-08-01T04:54:04.940Z,92.55
2017-08-01T04:55:05.273Z,92.79
2017-08-01T04:56:05.248Z,92.79
2017-08-01T04:57:04.955Z,91.15
2017-08-01T04:58:04.959Z,88.87
2017-08-01T04:59:05.259Z,88.29
2017-08-01T05:00:05.272Z,87.33
2017-08-01T05:01:05.268Z,87.57
2017-08-01T05:02:05.275Z,86.6
2017-08-01T05:03:05.277Z,87.18
2017-08-01T05:04:05.333Z,85.93
2017-08-01T05:05:05.285Z,86.51
2017-08-01T05:06:05.292Z,87.18
2017-08-01T05:07:05.304Z,86.69
2017-08-01T05:08:05.304Z,85.77
2017-08-01T05:09:05.306Z,84.13
2017-08-01T05:10:05.011Z,83.88
2017-08-01T05:11:05.315Z,83.84
2017-08-01T05:12:05.321Z,83.74
2017-08-01T05:13:05.030Z,85.1
2017-08-01T05:14:05.335Z,85.53
2017-08-01T05:15:05.342Z,86.11
2017-08-01T05:16:05.340Z,86.75
2017-08-01T05:17:05.045Z,86.46
2017-08-01T05:18:05.364Z,87.33
2017-08-01T05:19:05.861Z,87.33
2017-08-01T05:20:05.099Z,87.23
2017-08-01T05:21:05.372Z,87.71
2017-08-01T05:22:05.370Z,87.62
2017-08-01T05:23:05.382Z,87.43
2017-08-01T05:24:05.389Z,87.52
2017-08-01T05:25:05.388Z,87.52
2017-08-01T05:26:05.393Z,87.33
2017-08-01T05:27:05.397Z,87.62
2017-08-01T05:28:05.398Z,87.52
2017-08-01T05:29:05.403Z,88.01
2017-08-01T05:30:05.406Z,88.2
2017-08-01T05:31:05.415Z,88.1
2017-08-01T05:32:05.416Z,87.91
2017-08-01T05:33:05.428Z,87.04
2017-08-01T05:34:10.700Z,86.65
2017-08-01T05:35:05.172Z,86.94
2017-08-01T05:36:05.210Z,86.11
2017-08-01T05:37:05.509Z,85.83
2017-08-01T05:38:05.442Z,85.15
2017-08-01T05:39:05.449Z,84.52
2017-08-01T05:40:05.458Z,84.22
2017-08-01T05:41:05.456Z,83.74
2017-08-01T05:42:05.462Z,83.06
2017-08-01T05:43:05.470Z,83.36
2017-08-01T05:44:05.470Z,83.36
2017-08-01T05:45:05.478Z,83.45
2017-08-01T05:46:05.486Z,83.26
2017-08-01T05:47:05.486Z,84.13
2017-08-01T05:48:05.490Z,84.03
2017-08-01T05:49:05.496Z,83.84
2017-08-01T05:50:05.515Z,84.32
2017-08-01T05:51:05.504Z,83.94
2017-08-01T05:52:05.209Z,84.13
2017-08-01T05:53:05.211Z,84.61
2017-08-01T05:54:05.523Z,84.71
2017-08-01T05:55:05.219Z,84.67
2017-08-01T05:56:05.530Z,84.86
2017-08-01T05:57:05.531Z,85.44
2017-08-01T05:58:05.535Z,85.53
2017-08-01T05:59:05.539Z,85.63
2017-08-01T06:00:05.548Z,85.25
2017-08-01T06:01:05.554Z,85.63
2017-08-01T06:02:05.557Z,85.73
2017-08-01T06:03:05.558Z,85.93
2017-08-01T06:04:05.567Z,86.51
2017-08-01T06:05:05.619Z,86.41
2017-08-01T06:06:05.569Z,85.63
2017-08-01T06:07:05.576Z,85.93
2017-08-01T06:08:05.583Z,86.02
2017-08-01T06:09:05.584Z,85.73
2017-08-01T06:10:05.299Z,85.83
2017-08-01T06:11:05.595Z,85.93
2017-08-01T06:12:05.596Z,86.02
2017-08-01T06:13:05.604Z,85.93
2017-08-01T06:14:05.392Z,86.02
2017-08-01T06:15:05.613Z,85.83
2017-08-01T06:16:05.618Z,85.25
2017-08-01T06:17:05.644Z,84.52
2017-08-01T06:18:05.702Z,84.95
2017-08-01T06:19:05.712Z,84.57
2017-08-01T06:20:07.579Z,84.86
2017-08-01T06:21:05.641Z,84.95
2017-08-01T06:22:05.340Z,84.61
2017-08-01T06:23:05.646Z,83.36
2017-08-01T06:24:05.651Z,80.98
2017-08-01T06:25:05.367Z,79.95
2017-08-01T06:26:05.662Z,80.15
2017-08-01T06:27:05.665Z,79.37
2017-08-01T06:28:05.669Z,79.76
2017-08-01T06:29:05.679Z,79.85
2017-08-01T06:30:05.736Z,80.63
2017-08-01T06:31:05.684Z,80.44
2017-08-01T06:32:05.698Z,79.37
2017-08-01T06:33:05.697Z,78.64
2017-08-01T06:34:05.711Z,77.42
2017-08-01T06:35:07.638Z,77.22
2017-08-01T06:36:05.708Z,78.09
2017-08-01T06:37:05.419Z,78.44
2017-08-01T06:38:05.725Z,78.34
2017-08-01T06:39:05.724Z,78.54
2017-08-01T06:40:05.728Z,78.05
2017-08-01T06:41:05.745Z,76.35
2017-08-01T06:42:05.739Z,75.42
2017-08-01T06:43:05.750Z,74.49
2017-08-01T06:44:05.749Z,73.42
2017-08-01T06:45:05.758Z,72.74
2017-08-01T06:46:05.762Z,71.45
2017-08-01T06:47:05.770Z,69.41
2017-08-01T06:48:05.776Z,68.6
2017-08-01T06:49:05.781Z,66.31
2017-08-01T06:50:05.815Z,65.08
2017-08-01T06:51:05.496Z,64.42
2017-08-01T06:52:05.799Z,63.45
2017-08-01T06:53:05.807Z,62.41
2017-08-01T06:54:05.837Z,60.88
2017-08-01T06:55:05.821Z,60.33
2017-08-01T06:56:05.836Z,58.99
2017-08-01T06:57:05.837Z,57.65
2017-08-01T06:58:05.544Z,56.61
2017-08-01T06:59:05.847Z,55.76
2017-08-01T07:00:05.859Z,55.37
2017-08-01T07:01:05.566Z,55.96
2017-08-01T07:02:05.874Z,57.29
2017-08-01T07:03:05.893Z,60.65
2017-08-01T07:04:05.898Z,62.8
2017-08-01T07:05:05.897Z,65.46
2017-08-01T07:06:05.603Z,66.6
2017-08-01T07:07:05.914Z,67.73
2017-08-01T07:08:05.624Z,67.89
2017-08-01T07:09:05.927Z,66.92
2017-08-01T07:10:05.931Z,65.89
2017-08-01T07:11:06.741Z,64.85
2017-08-01T07:12:05.644Z,63.78
2017-08-01T07:13:05.657Z,63.23
2017-08-01T07:14:05.659Z,64.39
2017-08-01T07:15:05.666Z,65.92
2017-08-01T07:16:05.680Z,65.69
2017-08-01T07:17:05.679Z,65.63
2017-08-01T07:18:05.991Z,64.56
2017-08-01T07:19:05.997Z,63.81
2017-08-01T07:20:06.003Z,62.84
2017-08-01T07:21:07.010Z,62.38
2017-08-01T07:22:06.027Z,61.41
2017-08-01T07:23:05.723Z,60.75
2017-08-01T07:24:06.033Z,59.42
2017-08-01T07:25:05.735Z,59.06
2017-08-01T07:26:06.044Z,58.87
2017-08-01T07:27:05.752Z,59.26
2017-08-01T07:28:06.066Z,60.1
2017-08-01T07:29:06.067Z,60.49
2017-08-01T07:30:06.073Z,60.49
2017-08-01T07:31:06.079Z,59.98
2017-08-01T07:32:06.096Z,60.3
2017-08-01T07:33:06.097Z,59.35
2017-08-01T07:34:06.102Z,58.58
2017-08-01T07:35:06.112Z,57.53
2017-08-01T07:36:05.819Z,56.77
2017-08-01T07:37:05.824Z,55.9
2017-08-01T07:38:06.135Z,54.85
2017-08-01T07:39:05.840Z,53.42
2017-08-01T07:40:05.849Z,53.44
2017-08-01T07:41:06.156Z,52.95
2017-08-01T07:42:06.164Z,53.17
2017-08-01T07:43:06.183Z,53.54
2017-08-01T07:44:06.180Z,54.03
2017-08-01T07:45:06.189Z,53.15
2017-08-01T07:46:06.199Z,54.03
2017-08-01T07:47:06.207Z,52.66
2017-08-01T07:48:06.220Z,51.9
2017-08-01T07:49:06.225Z,51.42
2017-08-01T07:50:06.232Z,50.46
2017-08-01T07:51:06.242Z,49.14
2017-08-01T07:52:06.250Z,48.55
2017-08-01T07:53:06.258Z,48.77
2017-08-01T07:54:06.266Z,48.19
2017-08-01T07:55:06.281Z,48.3
2017-08-01T07:56:06.287Z,49.55
2017-08-01T07:57:06.297Z,49.33
2017-08-01T07:58:06.305Z,49.24
2017-08-01T07:59:06.017Z,48.65
2017-08-01T08:00:06.323Z,48.48
2017-08-01T08:01:06.030Z,48.48
2017-08-01T08:02:06.341Z,47.89
2017-08-01T08:03:06.351Z,47.5
2017-08-01T08:04:06.356Z,47.03
2017-08-01T08:05:06.370Z,46.47
2017-08-01T08:06:06.390Z,46.56
2017-08-01T08:07:06.390Z,45.98
2017-08-01T08:08:06.400Z,45.21
2017-08-01T08:09:06.410Z,44.6
2017-08-01T08:10:06.416Z,44.73
2017-08-01T08:11:06.435Z,44.04
2017-08-01T08:12:06.133Z,45.41
2017-08-01T08:13:06.454Z,45.68
2017-08-01T08:14:06.472Z,45.39
2017-08-01T08:15:06.472Z,45.78
2017-08-01T08:16:06.487Z,45.09
2017-08-01T08:17:06.493Z,45.39
2017-08-01T08:18:06.495Z,45.19
2017-08-01T08:19:06.506Z,44.7
2017-08-01T08:20:06.516Z,44.23
2017-08-01T08:21:06.525Z,44.53
2017-08-01T08:22:06.542Z,44.16
2017-08-01T08:23:06.548Z,44.45
2017-08-01T08:24:06.562Z,44.62
2017-08-01T08:25:06.565Z,44.41
2017-08-01T08:26:06.574Z,45.31
2017-08-01T08:27:06.585Z,44.9
2017-08-01T08:28:06.596Z,44.43
2017-08-01T08:29:06.610Z,45.21
2017-08-01T08:30:06.615Z,45.09
2017-08-01T08:31:06.335Z,45.39
2017-08-01T08:32:06.635Z,45.59
2017-08-01T08:33:06.649Z,44.51
2017-08-01T08:34:06.667Z,43.57
2017-08-01T08:35:06.674Z,43.66
2017-08-01T08:36:06.676Z,44.62
2017-08-01T08:37:06.989Z,44.13
2017-08-01T08:38:06.395Z,44.41
2017-08-01T08:39:06.721Z,44.33
2017-08-01T08:40:06.721Z,45.19
2017-08-01T08:41:06.735Z,45.95
2017-08-01T08:42:06.740Z,47.38
2017-08-01T08:43:06.746Z,46.69
2017-08-01T08:44:06.467Z,46.59
2017-08-01T08:45:06.777Z,46.79
2017-08-01T08:46:06.782Z,46.13
2017-08-01T08:47:06.787Z,46.13
2017-08-01T08:48:06.809Z,45.47
2017-08-01T08:49:06.507Z,45.95
2017-08-01T08:50:06.814Z,45.15
2017-08-01T08:51:06.823Z,45.37
2017-08-01T08:52:09.390Z,44.7
2017-08-01T08:53:06.844Z,45.86
2017-08-01T08:54:06.850Z,46.64
2017-08-01T08:55:06.867Z,46.23
2017-08-01T08:56:06.569Z,47.47
2017-08-01T08:57:06.887Z,47.94
2017-08-01T08:58:06.896Z,48.9
2017-08-01T08:59:06.901Z,49.65
2017-08-01T09:00:06.914Z,50.83
2017-08-01T09:01:06.927Z,51.88
2017-08-01T09:02:06.931Z,52.83
2017-08-01T09:03:06.941Z,53.09
2017-08-01T09:04:06.951Z,53.29
2017-08-01T09:05:06.960Z,54.05
2017-08-01T09:06:06.973Z,53.36
2017-08-01T09:07:07.029Z,53.46
2017-08-01T09:08:06.989Z,53.95
2017-08-01T09:09:06.999Z,54.53
2017-08-01T09:10:07.012Z,55.22
2017-08-01T09:11:07.016Z,54.5
2017-08-01T09:12:07.037Z,54.31
2017-08-01T09:13:07.038Z,54.7
2017-08-01T09:14:07.043Z,54.11
2017-08-01T09:15:07.049Z,54.6
2017-08-01T09:16:07.064Z,54.8
2017-08-01T09:17:07.073Z,54.5
2017-08-01T09:18:06.771Z,54.02
2017-08-01T09:19:07.087Z,53.05
2017-08-01T09:20:07.108Z,54.11
2017-08-01T09:21:07.108Z,53.53
2017-08-01T09:22:08.859Z,54.02
2017-08-01T09:23:07.130Z,54.6
2017-08-01T09:24:07.131Z,54.02
2017-08-01T09:25:06.832Z,53.73
2017-08-01T09:26:06.842Z,53.95
2017-08-01T09:27:07.147Z,53.83
2017-08-01T09:28:06.853Z,53.75
2017-08-01T09:29:07.164Z,53.07
2017-08-01T09:30:07.177Z,53.46
2017-08-01T09:31:07.178Z,53.46
2017-08-01T09:32:07.177Z,53.75
2017-08-01T09:33:07.192Z,53.17
2017-08-01T09:34:07.201Z,52.39
2017-08-01T09:35:07.211Z,51.9
2017-08-01T09:36:07.207Z,52.19
2017-08-01T09:37:07.228Z,51.8
2017-08-01T09:38:07.238Z,51.21
2017-08-01T09:39:07.237Z,50.43
2017-08-01T09:40:07.245Z,50.46
2017-08-01T09:41:07.246Z,50.36
2017-08-01T09:42:07.271Z,50.56
2017-08-01T09:43:07.257Z,50.46
2017-08-01T09:44:07.272Z,49.9
2017-08-01T09:45:07.273Z,50.59
2017-08-01T09:46:07.299Z,49.9
2017-08-01T09:47:07.289Z,49.04
2017-08-01T09:48:07.296Z,49.92
2017-08-01T09:49:06.995Z,51.2
2017-08-01T09:50:07.309Z,49.82
2017-08-01T09:51:07.315Z,49.92
2017-08-01T09:52:07.322Z,52.17
2017-08-01T09:53:07.381Z,51.17
2017-08-01T09:54:07.039Z,51.56
2017-08-01T09:55:07.344Z,50.98
2017-08-01T09:56:07.365Z,51.56
2017-08-01T09:57:07.362Z,51.46
2017-08-01T09:58:07.366Z,51.95
2017-08-01T09:59:07.371Z,52.05
2017-08-01T10:00:07.386Z,50.59
2017-08-01T10:01:07.386Z,50.39
2017-08-01T10:02:07.397Z,51.46
2017-08-01T10:03:07.417Z,50.49
2017-08-01T10:04:07.411Z,51.86
2017-08-01T10:05:07.420Z,52.73
2017-08-01T10:06:07.424Z,51.66
2017-08-01T10:07:07.436Z,53.09
2017-08-01T10:08:07.444Z,52.7
2017-08-01T10:09:07.451Z,52.61
2017-08-01T10:10:07.502Z,54.36
2017-08-01T10:11:07.462Z,53.88
2017-08-01T10:12:07.169Z,53.17
2017-08-01T10:13:07.179Z,52.58
2017-08-01T10:14:07.178Z,52.68
2017-08-01T10:15:07.224Z,52.68
2017-08-01T10:16:07.500Z,53.27
2017-08-01T10:17:07.506Z,54.05
2017-08-01T10:18:07.210Z,54.11
2017-08-01T10:19:07.517Z,53.83
2017-08-01T10:20:07.549Z,53.14
2017-08-01T10:21:07.535Z,53.73
2017-08-01T10:22:07.242Z,53.44
2017-08-01T10:23:07.545Z,53.6
2017-08-01T10:24:07.549Z,54.9
2017-08-01T10:25:07.571Z,53.34
2017-08-01T10:26:07.565Z,52.95
2017-08-01T10:27:07.573Z,54.93
2017-08-01T10:28:07.587Z,54.14
2017-08-01T10:29:07.601Z,53.75
2017-08-01T10:30:07.337Z,54.34
2017-08-01T10:31:07.607Z,54.14
2017-08-01T10:32:07.607Z,52.48
2017-08-01T10:33:07.612Z,53.07
2017-08-01T10:34:07.317Z,53.27
2017-08-01T10:35:07.362Z,54.24
2017-08-01T10:36:07.632Z,54.14
2017-08-01T10:37:07.338Z,52.78
2017-08-01T10:38:07.698Z,52.48
2017-08-01T10:39:07.675Z,53.46
2017-08-01T10:40:07.735Z,53.07
2017-08-01T10:41:07.676Z,53.17
2017-08-01T10:42:07.674Z,53.07
2017-08-01T10:43:07.681Z,52.78
2017-08-01T10:44:07.389Z,52.48
2017-08-01T10:45:07.711Z,52.78
2017-08-01T10:46:07.402Z,53.09
2017-08-01T10:47:07.707Z,53
2017-08-01T10:48:07.413Z,53.39
2017-08-01T10:49:07.418Z,53.19
2017-08-01T10:50:07.878Z,53.09
2017-08-01T10:51:07.751Z,52.8
2017-08-01T10:52:07.743Z,52.05
2017-08-01T10:53:10.613Z,52.34
2017-08-01T10:54:07.460Z,51.37
2017-08-01T10:55:07.947Z,51.46
2017-08-01T10:56:07.777Z,51.17
2017-08-01T10:57:07.783Z,51.07
2017-08-01T10:58:07.805Z,50.78
2017-08-01T10:59:07.792Z,50.42
2017-08-01T11:00:07.986Z,49.92
2017-08-01T11:01:07.830Z,49.46
2017-08-01T11:02:07.816Z,49.16
2017-08-01T11:03:07.824Z,49.16
2017-08-01T11:04:07.526Z,48.99
2017-08-01T11:05:08.078Z,48.99
2017-08-01T11:06:07.841Z,48.72
2017-08-01T11:07:07.860Z,48.43
2017-08-01T11:08:07.857Z,47.45
2017-08-01T11:09:07.864Z,47.26
2017-08-01T11:10:07.981Z,47.45
2017-08-01T11:11:07.882Z,46.37
2017-08-01T11:12:07.891Z,46.98
2017-08-01T11:13:07.909Z,46.59
2017-08-01T11:14:07.904Z,46.59
2017-08-01T11:15:08.193Z,46.59
2017-08-01T11:16:07.928Z,46.69
2017-08-01T11:17:07.925Z,46.52
2017-08-01T11:18:07.937Z,46.33
2017-08-01T11:19:07.944Z,46.42
2017-08-01T11:20:07.810Z,46.89
2017-08-01T11:21:07.980Z,47.47
2017-08-01T11:22:07.969Z,47.75
2017-08-01T11:23:07.977Z,47.65
2017-08-01T11:24:07.979Z,47.55
2017-08-01T11:25:08.203Z,49.04
2017-08-01T11:26:07.997Z,47.87
2017-08-01T11:27:08.001Z,46.69
2017-08-01T11:28:07.708Z,46.3
2017-08-01T11:29:08.016Z,46.13
2017-08-01T11:30:08.125Z,46.13
2017-08-01T11:31:08.039Z,46.79
2017-08-01T11:32:08.041Z,46.79
2017-08-01T11:33:08.046Z,47.45
2017-08-01T11:34:08.055Z,47.94
2017-08-01T11:35:08.182Z,47.75
2017-08-01T11:36:08.073Z,49.41
2017-08-01T11:37:08.079Z,48.04
2017-08-01T11:38:07.786Z,46.59
2017-08-01T11:39:07.794Z,46.5
2017-08-01T11:40:08.172Z,47.08
2017-08-01T11:41:08.112Z,45.73
2017-08-01T11:42:07.818Z,45.93
2017-08-01T11:43:08.129Z,47.01
2017-08-01T11:44:08.136Z,46.23
2017-08-01T11:45:08.301Z,46.91
2017-08-01T11:46:08.159Z,47.5
2017-08-01T11:47:08.160Z,46.72
2017-08-01T11:48:08.171Z,46.69
2017-08-01T11:49:08.175Z,46.89
2017-08-01T11:50:08.376Z,46.79
2017-08-01T11:51:08.213Z,46.23
2017-08-01T11:52:07.902Z,46.79
2017-08-01T11:53:08.206Z,47.06
2017-08-01T11:54:07.913Z,48.92
2017-08-01T11:55:07.956Z,48.9
2017-08-01T11:56:08.231Z,49.48
2017-08-01T11:57:08.237Z,49.26
2017-08-01T11:58:07.942Z,49.16
2017-08-01T11:59:07.955Z,49.46
2017-08-01T12:00:08.536Z,49.95
2017-08-01T12:01:08.267Z,49.26
2017-08-01T12:02:08.276Z,50.54
2017-08-01T12:03:08.288Z,49.26
2017-08-01T12:04:08.306Z,50.66
2017-08-01T12:05:08.491Z,49.48
2017-08-01T12:06:08.305Z,48.99
2017-08-01T12:07:08.010Z,50.2
2017-08-01T12:08:08.320Z,48.82
2017-08-01T12:09:08.076Z,48.43
2017-08-01T12:10:08.627Z,48.53
2017-08-01T12:11:08.351Z,49.11
2017-08-01T12:12:08.401Z,47.47
2017-08-01T12:13:08.373Z,47.57
2017-08-01T12:14:08.379Z,46.79
2017-08-01T12:15:08.520Z,46.59
2017-08-01T12:16:08.411Z,46.01
2017-08-01T12:17:08.408Z,45.81
2017-08-01T12:18:08.406Z,45.62
2017-08-01T12:19:08.109Z,46.01
2017-08-01T12:20:08.223Z,46.01
2017-08-01T12:21:08.434Z,45.64
2017-08-01T12:22:08.462Z,45.03
2017-08-01T12:23:08.130Z,44.93
2017-08-01T12:24:11.594Z,45.23
2017-08-01T12:25:08.497Z,45.42
2017-08-01T12:26:08.460Z,45.32
2017-08-01T12:27:08.493Z,44.83
2017-08-01T12:28:08.170Z,44.93
2017-08-01T12:29:08.178Z,44.05
2017-08-01T12:30:08.718Z,44.05
2017-08-01T12:31:08.521Z,43.27
2017-08-01T12:32:08.532Z,42.97
2017-08-01T12:33:08.537Z,42.68
2017-08-01T12:34:08.535Z,42.78
2017-08-01T12:35:08.892Z,42.88
2017-08-01T12:36:08.562Z,42.38
2017-08-01T12:37:08.552Z,41.89
2017-08-01T12:38:08.579Z,42.38
2017-08-01T12:39:08.581Z,42.58
2017-08-01T12:40:08.989Z,42.88
2017-08-01T12:41:08.595Z,42.88
2017-08-01T12:42:08.280Z,44.24
2017-08-01T12:43:08.596Z,45.13
2017-08-01T12:44:08.605Z,45.62
2017-08-01T12:45:08.921Z,46.01
2017-08-01T12:46:08.619Z,45.05
2017-08-01T12:47:08.643Z,45.44
2017-08-01T12:48:08.635Z,45.54
2017-08-01T12:49:08.649Z,46.03
2017-08-01T12:50:08.999Z,46.11
2017-08-01T12:51:08.659Z,46.3
2017-08-01T12:52:08.658Z,46.01
2017-08-01T12:53:08.681Z,45.81
2017-08-01T12:54:08.676Z,45.91